Главная страница
METAR-TAF:

METAR-TAF

Аэропорты :

Парзиван

Закаталы, Азербайджан

широта: 41-33-44N, долгота: 46-40-02E, высота над уровнем моря: 330 м

Текущие метеонаблюдения

Эта сводка был подготовлена 1 час и 6 минут назад, в 19:00 UTC
Ветер 4 Узел от восточно-юго-восточный
Температура 16°C
Влажность 77%
Давление 1029 hPa
Видимость 10 км и более
Рассеянная облачность на высоте 5000 фута

METAR: UBBY 151900Z 11004KT 9999 BKN050 16/12 Q1029 R33/////// NOSIG RMK MT OP

Время: 00:06 (20:06 UTC)

Прогноз

Эта сводка был подготовлена 3 часа и 6 минут назад, в 17:00 UTC
Прогноз действительный с 15-го 18 UTC до 16-го 03 UTC
Ветер 8 Узел от восточный
Видимость 10 км и более
Отдельные облака на высоте 4000 фута
Рассеянная облачность на высоте 10000 фута
изменения
С 16-го 00 UTC до 16-го 02 UTC
Ветер 2 Узел переменных направлений

TAF: UBBY 151700Z 1518/1603 09008KT 9999 SCT040 BKN100 BECMG 1600/1602 VRB02KT

Метеонаблюдения и прогнозы для более 4000 аэропортов (сводки METAR и TAF).

Имеющиеся станции представлены на карте желтыми и красными точками.

Чтобы увидеть название станции, наведите на нее мышь.

Затем щелкните, чтобы увидеть метеонаблюдения и метеопрогнозы.

Управление картой: чтобы увеличить масштаб, щелкните зеленые кнопки с черным крестиком; чтобы уменьшить масштаб, щелкните зеленую кнопку с тире; для просмотра соседних карт щелкайте зеленые стрелки.


METAR-TAF: